HomeShort term forecast

Short term forecast

Graphical weather forecast for the next 48 hours for Montreal:
Short term forecast
This weather forecast is automatically refreshed every 3 hours.

Hourly Experimental Forecast for the next 48 hours

Overall summary: Mostly cloudy starting this evening.

 Date & Hour   Temp   Feel   Baro   Hum   Speed & Bearing   Wind Gust   Precip.%   Precip.   Visibility   Cloud cover   Conditions 
 18/10/2018 - 08:00  -0.9°C  -6.1°C  1023.2 hPa  64%  18.5 km/h   34.4 km/h  0%  --  16.1km  32%  Partly Cloudy 
 18/10/2018 - 09:00  -0.4°C  -5.9°C  1023.9 hPa  59%  21.4 km/h   36.0 km/h  0%  --  16.1km  18%  Clear 
 18/10/2018 - 10:00  0.7°C  -4.7°C  1024.4 hPa  54%  22.8 km/h   35.3 km/h  0%  --  16.1km  4%  Clear 
 18/10/2018 - 11:00  1.8°C  -3.4°C  1024.7 hPa  49%  23.4 km/h   33.7 km/h  5%  0.06 mm/h  16.1km  17%  Clear 
 18/10/2018 - 12:00  2.8°C  -2.3°C  1024.4 hPa  44%  24.3 km/h   35.2 km/h  4%  0.03 mm/h  16.1km  17%  Clear 
 18/10/2018 - 13:00  3.6°C  -1.2°C  1024.3 hPa  41%  24.1 km/h   35.9 km/h  0%  --  16.1km  6%  Clear 
 18/10/2018 - 14:00  4.1°C  -0.4°C  1024.1 hPa  39%  23.5 km/h   36.4 km/h  3%  0.05 mm/h  16.1km  5%  Clear 
 18/10/2018 - 15:00  4.5°C  -0.1°C  1024.0 hPa  38%  23.8 km/h   37.0 km/h  0%  --  16.1km  19%  Clear 
 18/10/2018 - 16:00  4.3°C  -0.2°C  1023.8 hPa  39%  23.4 km/h   36.8 km/h  0%  --  16.1km  24%  Clear 
 18/10/2018 - 17:00  4.3°C  -0.1°C  1023.7 hPa  39%  22.2 km/h   34.9 km/h  0%  --  16.1km  24%  Clear 
 18/10/2018 - 18:00  3.7°C  -0.5°C  1023.7 hPa  41%  19.4 km/h   34.8 km/h  2%  0.03 mm/h  16.1km  4%  Clear 
 18/10/2018 - 19:00  3.0°C  -0.9°C  1023.9 hPa  43%  16.3 km/h   35.5 km/h  3%  0.04 mm/h  16.1km  7%  Clear 
 18/10/2018 - 20:00  2.2°C  -1.2°C  1023.9 hPa  47%  12.3 km/h   33.4 km/h  3%  0.02 mm/h  16.1km  17%  Clear 
 18/10/2018 - 21:00  2.1°C  -1.2°C  1023.6 hPa  47%  11.4 km/h   29.8 km/h  0%  --  16.1km  29%  Partly Cloudy 
 18/10/2018 - 22:00  2.3°C  -0.5°C  1023.5 hPa  47%  9.8 km/h   23.1 km/h  0%  --  16.1km  70%  Mostly Cloudy 
 18/10/2018 - 23:00  2.7°C  0.1°C  1023.1 hPa  48%  9.2 km/h   20.2 km/h  0%  --  16.1km  98%  Overcast 
 19/10/2018 - 00:00  2.8°C  0.2°C  1022.4 hPa  50%  9.5 km/h   24.3 km/h  0%  --  16.1km  90%  Mostly Cloudy 
 19/10/2018 - 01:00  2.9°C  0.0°C  1021.7 hPa  53%  10.4 km/h   32.0 km/h  0%  --  16.1km  98%  Overcast 
 19/10/2018 - 02:00  3.0°C  0.0°C  1020.9 hPa  57%  11.1 km/h   38.2 km/h  0%  --  16.1km  98%  Overcast 
 19/10/2018 - 03:00  3.1°C  0.1°C  1019.9 hPa  61%  11.7 km/h   41.4 km/h  1%  0.01 mm/h  16.1km  96%  Overcast 
 19/10/2018 - 04:00  3.3°C  0.2°C  1018.9 hPa  66%  12.4 km/h   43.3 km/h  2%  0.01 mm/h  16.1km  93%  Mostly Cloudy 
 19/10/2018 - 05:00  3.4°C  0.1°C  1018.0 hPa  71%  13.2 km/h   44.1 km/h  2%  0.01 mm/h  16.1km  89%  Mostly Cloudy 
 19/10/2018 - 06:00  3.2°C  -0.2°C  1017.5 hPa  75%  13.5 km/h   43.2 km/h  0%  --  16.1km  77%  Mostly Cloudy 
 19/10/2018 - 07:00  3.3°C  -0.1°C  1017.1 hPa  76%  13.3 km/h   41.3 km/h  0%  --  16.1km  71%  Mostly Cloudy 
 19/10/2018 - 08:00  4.0°C  0.6°C  1016.7 hPa  76%  14.2 km/h   40.1 km/h  0%  --  16.1km  71%  Mostly Cloudy 
 19/10/2018 - 09:00  5.2°C  1.8°C  1015.9 hPa  76%  16.3 km/h   40.2 km/h  0%  --  16.1km  52%  Partly Cloudy 
 19/10/2018 - 10:00  7.2°C  3.9°C  1015.3 hPa  73%  20.2 km/h   40.8 km/h  0%  --  16.1km  43%  Partly Cloudy 
 19/10/2018 - 11:00  9.2°C  6.0°C  1014.5 hPa  69%  23.6 km/h   41.4 km/h  2%  0.01 mm/h  16.1km  36%  Partly Cloudy 
 19/10/2018 - 12:00  10.7°C  10.7°C  1013.4 hPa  67%  25.5 km/h   41.8 km/h  2%  0.01 mm/h  16.1km  35%  Partly Cloudy 
 19/10/2018 - 13:00  12.0°C  12.0°C  1012.1 hPa  66%  26.6 km/h   42.2 km/h  2%  0.01 mm/h  16.1km  36%  Partly Cloudy 
 19/10/2018 - 14:00  13.3°C  13.3°C  1010.9 hPa  63%  27.2 km/h   43.0 km/h  2%  0.01 mm/h  16.1km  37%  Partly Cloudy 
 19/10/2018 - 15:00  14.4°C  14.4°C  1009.9 hPa  62%  27.2 km/h   43.9 km/h  0%  --  16.1km  37%  Partly Cloudy 
 19/10/2018 - 16:00  15.0°C  15.0°C  1009.0 hPa  62%  26.6 km/h   45.2 km/h  0%  --  16.1km  37%  Partly Cloudy 
 19/10/2018 - 17:00  15.0°C  15.0°C  1008.3 hPa  63%  26.0 km/h   47.1 km/h  0%  --  16.1km  38%  Partly Cloudy 
 19/10/2018 - 18:00  14.5°C  14.5°C  1007.8 hPa  65%  25.2 km/h   50.1 km/h  0%  --  16.1km  48%  Partly Cloudy 
 19/10/2018 - 19:00  13.3°C  13.3°C  1007.4 hPa  70%  24.4 km/h   53.6 km/h  0%  --  16.1km  61%  Mostly Cloudy 
 19/10/2018 - 20:00  12.5°C  12.5°C  1007.0 hPa  72%  24.0 km/h   56.4 km/h  0%  --  16.1km  73%  Mostly Cloudy 
 19/10/2018 - 21:00  12.2°C  12.2°C  1006.2 hPa  72%  24.3 km/h   58.3 km/h  6%  0.01 mm/h  16.1km  82%  Mostly Cloudy 
 19/10/2018 - 22:00  12.2°C  12.2°C  1005.4 hPa  71%  24.9 km/h   59.6 km/h  8%  0.03 mm/h  16.1km  89%  Breezy and Mostly Cloudy 
 19/10/2018 - 23:00  12.1°C  12.1°C  1004.5 hPa  70%  25.4 km/h   59.8 km/h  12%  0.06 mm/h  16.1km  94%  Breezy and Overcast 
 20/10/2018 - 00:00  11.7°C  11.7°C  1003.7 hPa  70%  25.8 km/h   58.2 km/h  13%  0.08 mm/h  16.1km  96%  Breezy and Overcast 
 20/10/2018 - 01:00  11.4°C  11.4°C  1002.8 hPa  70%  26.1 km/h   55.2 km/h  13%  0.10 mm/h  16.1km  96%  Breezy and Overcast 
 20/10/2018 - 02:00  11.1°C  11.1°C  1001.9 hPa  70%  26.4 km/h   52.9 km/h  16%  0.12 mm/h  16.1km  97%  Breezy and Overcast 
 20/10/2018 - 03:00  10.7°C  10.7°C  1000.9 hPa  68%  27.0 km/h   51.6 km/h  17%  0.11 mm/h  16.1km  98%  Breezy and Overcast 
 20/10/2018 - 04:00  10.3°C  10.3°C  999.9 hPa  67%  27.7 km/h   51.0 km/h  17%  0.09 mm/h  16.1km  99%  Breezy and Overcast 
 20/10/2018 - 05:00  9.7°C  6.3°C  999.0 hPa  68%  28.0 km/h   51.0 km/h  17%  0.08 mm/h  16.1km  100%  Breezy and Overcast 
 20/10/2018 - 06:00  8.8°C  5.2°C  998.3 hPa  72%  27.7 km/h   51.8 km/h  21%  0.09 mm/h  16.1km  100%  Breezy and Overcast 
 20/10/2018 - 07:00  8.3°C  4.7°C  997.8 hPa  76%  27.1 km/h   53.2 km/h  29%  0.15 mm/h  16.1km  100%  Breezy and Overcast 
Test

 

Past weather and reports

Past weatherFind in this section the past weather conditions, weather archive, graphics, reports and statistics.

Current conditions

Current weather condition for MontrealAll you need to know about the current weather conditions for Montreal. Weather data is updated every 10 minutes.

Weather forecast

Current Montreal weatherSince 2004, celinium.com website has provided accurate weather forecast for Montreal's island.